sensor_id;sensor_type;location;lat;lon;timestamp;pressure;altitude;pressure_sealevel;temperature;humidity
43757;BME280;73222;41.866;12.462;2024-03-17T00:02:12;101820.03;;;11.55;100.00
43757;BME280;73222;41.866;12.462;2024-03-17T00:04:38;101824.56;;;11.65;100.00
43757;BME280;73222;41.866;12.462;2024-03-17T00:07:03;101825.47;;;11.67;100.00
43757;BME280;73222;41.866;12.462;2024-03-17T00:09:29;101817.56;;;11.63;100.00
43757;BME280;73222;41.866;12.462;2024-03-17T00:11:55;101809.91;;;11.67;100.00
43757;BME280;73222;41.866;12.462;2024-03-17T00:14:21;101804.72;;;11.67;100.00
43757;BME280;73222;41.866;12.462;2024-03-17T00:16:47;101816.84;;;11.68;100.00
43757;BME280;73222;41.866;12.462;2024-03-17T00:19:13;101799.47;;;11.64;100.00
43757;BME280;73222;41.866;12.462;2024-03-17T00:21:39;101802.03;;;11.63;100.00
43757;BME280;73222;41.866;12.462;2024-03-17T00:24:05;101804.53;;;11.58;100.00
43757;BME280;73222;41.866;12.462;2024-03-17T00:26:30;101804.59;;;11.61;100.00
43757;BME280;73222;41.866;12.462;2024-03-17T00:28:56;101812.31;;;11.58;100.00
43757;BME280;73222;41.866;12.462;2024-03-17T00:31:22;101813.13;;;11.54;100.00
43757;BME280;73222;41.866;12.462;2024-03-17T00:33:51;101808.84;;;11.58;100.00
43757;BME280;73222;41.866;12.462;2024-03-17T00:36:17;101811.47;;;11.59;100.00
43757;BME280;73222;41.866;12.462;2024-03-17T00:38:42;101811.47;;;11.59;100.00
43757;BME280;73222;41.866;12.462;2024-03-17T00:41:08;101821.78;;;11.56;100.00
43757;BME280;73222;41.866;12.462;2024-03-17T00:43:33;101814.00;;;11.56;100.00
43757;BME280;73222;41.866;12.462;2024-03-17T00:45:58;101818.34;;;11.57;100.00
43757;BME280;73222;41.866;12.462;2024-03-17T00:48:24;101817.50;;;11.57;100.00
43757;BME280;73222;41.866;12.462;2024-03-17T00:50:55;101820.94;;;11.57;100.00
43757;BME280;73222;41.866;12.462;2024-03-17T00:53:20;101820.00;;;11.53;100.00
43757;BME280;73222;41.866;12.462;2024-03-17T00:55:53;101817.19;;;11.43;100.00
43757;BME280;73222;41.866;12.462;2024-03-17T00:58:22;101822.47;;;11.46;100.00
43757;BME280;73222;41.866;12.462;2024-03-17T01:00:47;101817.16;;;11.39;100.00
43757;BME280;73222;41.866;12.462;2024-03-17T01:03:14;101819.69;;;11.36;100.00
43757;BME280;73222;41.866;12.462;2024-03-17T01:05:40;101822.34;;;11.39;100.00
43757;BME280;73222;41.866;12.462;2024-03-17T01:08:08;101810.09;;;11.32;100.00
43757;BME280;73222;41.866;12.462;2024-03-17T01:10:37;101810.09;;;11.32;100.00
43757;BME280;73222;41.866;12.462;2024-03-17T01:13:04;101810.94;;;11.31;100.00
43757;BME280;73222;41.866;12.462;2024-03-17T01:15:30;101804.78;;;11.26;100.00
43757;BME280;73222;41.866;12.462;2024-03-17T01:17:55;101806.44;;;11.22;100.00
43757;BME280;73222;41.866;12.462;2024-03-17T01:20:20;101802.13;;;11.23;100.00
43757;BME280;73222;41.866;12.462;2024-03-17T01:22:46;101794.28;;;11.18;100.00
43757;BME280;73222;41.866;12.462;2024-03-17T01:25:11;101796.78;;;11.13;100.00
43757;BME280;73222;41.866;12.462;2024-03-17T01:27:37;101795.03;;;11.12;100.00
43757;BME280;73222;41.866;12.462;2024-03-17T01:30:03;101803.66;;;11.11;100.00
43757;BME280;73222;41.866;12.462;2024-03-17T01:32:28;101803.56;;;11.08;100.00
43757;BME280;73222;41.866;12.462;2024-03-17T01:34:54;101786.28;;;11.07;100.00
43757;BME280;73222;41.866;12.462;2024-03-17T01:37:19;101794.75;;;11.00;100.00
43757;BME280;73222;41.866;12.462;2024-03-17T01:39:45;101788.72;;;11.01;100.00
43757;BME280;73222;41.866;12.462;2024-03-17T01:42:10;101788.72;;;11.01;100.00
43757;BME280;73222;41.866;12.462;2024-03-17T01:44:35;101779.16;;;10.97;100.00
43757;BME280;73222;41.866;12.462;2024-03-17T01:47:01;101782.50;;;10.93;100.00
43757;BME280;73222;41.866;12.462;2024-03-17T01:49:26;101779.03;;;10.91;100.00
43757;BME280;73222;41.866;12.462;2024-03-17T01:51:52;101777.13;;;10.83;100.00
43757;BME280;73222;41.866;12.462;2024-03-17T01:54:18;101776.25;;;10.81;100.00
43757;BME280;73222;41.866;12.462;2024-03-17T01:56:44;101780.53;;;10.79;100.00
43757;BME280;73222;41.866;12.462;2024-03-17T01:59:10;101786.41;;;10.74;100.00
43757;BME280;73222;41.866;12.462;2024-03-17T02:01:36;101786.50;;;10.77;100.00
43757;BME280;73222;41.866;12.462;2024-03-17T02:04:03;101777.00;;;10.77;100.00
43757;BME280;73222;41.866;12.462;2024-03-17T02:06:28;101777.69;;;10.70;100.00
43757;BME280;73222;41.866;12.462;2024-03-17T02:08:54;101782.13;;;10.74;100.00
43757;BME280;73222;41.866;12.462;2024-03-17T02:13:49;101780.13;;;10.62;100.00
43757;BME280;73222;41.866;12.462;2024-03-17T02:16:15;101781.84;;;10.62;100.00
43757;BME280;73222;41.866;12.462;2024-03-17T02:18:40;101781.03;;;10.63;100.00
43757;BME280;73222;41.866;12.462;2024-03-17T02:21:05;101782.78;;;10.64;100.00
43757;BME280;73222;41.866;12.462;2024-03-17T02:23:33;101776.66;;;10.62;100.00
43757;BME280;73222;41.866;12.462;2024-03-17T02:25:59;101771.53;;;10.63;100.00
43757;BME280;73222;41.866;12.462;2024-03-17T02:28:24;101770.63;;;10.61;100.00
43757;BME280;73222;41.866;12.462;2024-03-17T02:30:49;101771.53;;;10.63;100.00
43757;BME280;73222;41.866;12.462;2024-03-17T02:33:15;101774.84;;;10.57;100.00
43757;BME280;73222;41.866;12.462;2024-03-17T02:35:40;101767.09;;;10.57;100.00
43757;BME280;73222;41.866;12.462;2024-03-17T02:38:06;101763.56;;;10.54;100.00
43757;BME280;73222;41.866;12.462;2024-03-17T02:40:33;101759.97;;;10.47;100.00
43757;BME280;73222;41.866;12.462;2024-03-17T02:42:59;101760.91;;;10.52;100.00
43757;BME280;73222;41.866;12.462;2024-03-17T02:45:24;101765.25;;;10.53;100.00
43757;BME280;73222;41.866;12.462;2024-03-17T02:47:50;101760.03;;;10.50;100.00
43757;BME280;73222;41.866;12.462;2024-03-17T02:50:15;101767.78;;;10.50;100.00
43757;BME280;73222;41.866;12.462;2024-03-17T02:52:41;101762.56;;;10.47;100.00
43757;BME280;73222;41.866;12.462;2024-03-17T02:55:06;101762.47;;;10.44;100.00
43757;BME280;73222;41.866;12.462;2024-03-17T02:57:32;101767.56;;;10.41;100.00
43757;BME280;73222;41.866;12.462;2024-03-17T02:59:58;101776.16;;;10.40;100.00
43757;BME280;73222;41.866;12.462;2024-03-17T03:02:24;101773.38;;;10.30;100.00
43757;BME280;73222;41.866;12.462;2024-03-17T03:04:49;101777.69;;;10.31;100.00
43757;BME280;73222;41.866;12.462;2024-03-17T03:07:15;101782.03;;;10.33;100.00
43757;BME280;73222;41.866;12.462;2024-03-17T03:09:40;101783.66;;;10.29;100.00
43757;BME280;73222;41.866;12.462;2024-03-17T03:12:06;101781.88;;;10.26;100.00
43757;BME280;73222;41.866;12.462;2024-03-17T03:14:33;101790.38;;;10.22;100.00
43757;BME280;73222;41.866;12.462;2024-03-17T03:16:58;101784.31;;;10.20;100.00
43757;BME280;73222;41.866;12.462;2024-03-17T03:19:24;101778.16;;;10.15;100.00
43757;BME280;73222;41.866;12.462;2024-03-17T03:21:49;101777.22;;;10.13;100.00
43757;BME280;73222;41.866;12.462;2024-03-17T03:24:15;101775.38;;;10.07;100.00
43757;BME280;73222;41.866;12.462;2024-03-17T03:26:41;101778.84;;;10.08;100.00
43757;BME280;73222;41.866;12.462;2024-03-17T03:29:06;101778.75;;;10.04;100.00
43757;BME280;73222;41.866;12.462;2024-03-17T03:31:34;101772.63;;;9.99;100.00
43757;BME280;73222;41.866;12.462;2024-03-17T03:34:00;101777.75;;;9.98;100.00
43757;BME280;73222;41.866;12.462;2024-03-17T03:36:28;101779.44;;;9.97;100.00
43757;BME280;73222;41.866;12.462;2024-03-17T03:38:54;101779.38;;;9.94;100.00
43757;BME280;73222;41.866;12.462;2024-03-17T03:41:23;101776.63;;;9.88;100.00
43757;BME280;73222;41.866;12.462;2024-03-17T03:43:48;101783.53;;;9.89;100.00
43757;BME280;73222;41.866;12.462;2024-03-17T03:46:14;101791.50;;;9.97;100.00
43757;BME280;73222;41.866;12.462;2024-03-17T03:48:40;101790.47;;;9.90;100.00
43757;BME280;73222;41.866;12.462;2024-03-17T03:51:07;101785.22;;;9.87;100.00
43757;BME280;73222;41.866;12.462;2024-03-17T03:53:36;101790.41;;;9.87;100.00
43757;BME280;73222;41.866;12.462;2024-03-17T03:56:03;101786.13;;;9.87;100.00
43757;BME280;73222;41.866;12.462;2024-03-17T03:58:32;101791.13;;;9.81;100.00
43757;BME280;73222;41.866;12.462;2024-03-17T04:00:57;101793.59;;;9.78;100.00
43757;BME280;73222;41.866;12.462;2024-03-17T04:03:23;101793.75;;;9.83;100.00
43757;BME280;73222;41.866;12.462;2024-03-17T04:05:48;101791.00;;;9.76;100.00
43757;BME280;73222;41.866;12.462;2024-03-17T04:08:13;101797.81;;;9.73;100.00
43757;BME280;73222;41.866;12.462;2024-03-17T04:10:57;101800.56;;;9.81;100.00
43757;BME280;73222;41.866;12.462;2024-03-17T04:13:23;101802.09;;;9.72;100.00
43757;BME280;73222;41.866;12.462;2024-03-17T04:15:48;101811.69;;;9.76;100.00
43757;BME280;73222;41.866;12.462;2024-03-17T04:18:14;101814.28;;;9.76;100.00
43757;BME280;73222;41.866;12.462;2024-03-17T04:20:42;101814.28;;;9.76;100.00
43757;BME280;73222;41.866;12.462;2024-03-17T04:23:08;101814.34;;;9.80;100.00
43757;BME280;73222;41.866;12.462;2024-03-17T04:25:33;101819.28;;;9.70;100.00
43757;BME280;73222;41.866;12.462;2024-03-17T04:27:58;101828.03;;;9.75;100.00
43757;BME280;73222;41.866;12.462;2024-03-17T04:30:24;101823.56;;;9.70;100.00
43757;BME280;73222;41.866;12.462;2024-03-17T04:32:49;101824.28;;;9.64;100.00
43757;BME280;73222;41.866;12.462;2024-03-17T04:35:15;101833.78;;;9.65;100.00
43757;BME280;73222;41.866;12.462;2024-03-17T04:37:40;101838.94;;;9.64;100.00
43757;BME280;73222;41.866;12.462;2024-03-17T04:40:06;101837.97;;;9.60;100.00
43757;BME280;73222;41.866;12.462;2024-03-17T04:42:34;101830.09;;;9.57;100.00
43757;BME280;73222;41.866;12.462;2024-03-17T04:45:00;101833.50;;;9.54;100.00
43757;BME280;73222;41.866;12.462;2024-03-17T04:47:25;101841.22;;;9.53;100.00
43757;BME280;73222;41.866;12.462;2024-03-17T04:49:51;101844.63;;;9.52;100.00
43757;BME280;73222;41.866;12.462;2024-03-17T04:52:16;101843.81;;;9.53;100.00
43757;BME280;73222;41.866;12.462;2024-03-17T04:54:42;101849.81;;;9.52;100.00
43757;BME280;73222;41.866;12.462;2024-03-17T04:57:08;101845.56;;;9.54;100.00
43757;BME280;73222;41.866;12.462;2024-03-17T04:59:34;101840.31;;;9.51;100.00
43757;BME280;73222;41.866;12.462;2024-03-17T05:02:00;101844.63;;;9.52;100.00
43757;BME280;73222;41.866;12.462;2024-03-17T05:04:25;101846.28;;;9.49;100.00
43757;BME280;73222;41.866;12.462;2024-03-17T05:06:51;101854.09;;;9.51;100.00
43757;BME280;73222;41.866;12.462;2024-03-17T05:09:17;101858.28;;;9.47;100.00
43757;BME280;73222;41.866;12.462;2024-03-17T05:11:42;101861.00;;;9.52;100.00
43757;BME280;73222;41.866;12.462;2024-03-17T05:14:08;101865.47;;;9.58;100.00
43757;BME280;73222;41.866;12.462;2024-03-17T05:16:34;101870.75;;;9.61;100.00
43757;BME280;73222;41.866;12.462;2024-03-17T05:18:59;101869.19;;;9.66;100.00
43757;BME280;73222;41.866;12.462;2024-03-17T05:21:25;101873.50;;;9.67;100.00
43757;BME280;73222;41.866;12.462;2024-03-17T05:23:51;101869.19;;;9.68;100.00
43757;BME280;73222;41.866;12.462;2024-03-17T05:26:17;101873.53;;;9.69;100.00
43757;BME280;73222;41.866;12.462;2024-03-17T05:28:42;101866.19;;;9.83;100.00
43757;BME280;73222;41.866;12.462;2024-03-17T05:31:08;101877.41;;;10.17;100.00
43757;BME280;73222;41.866;12.462;2024-03-17T05:33:34;101886.47;;;10.68;100.00
43757;BME280;73222;41.866;12.462;2024-03-17T05:36:02;101872.72;;;10.72;100.00
43757;BME280;73222;41.866;12.462;2024-03-17T05:38:28;101848.78;;;11.23;100.00
43757;BME280;73222;41.866;12.462;2024-03-17T05:41:01;101832.28;;;11.62;100.00
43757;BME280;73222;41.866;12.462;2024-03-17T05:43:27;101802.72;;;12.02;100.00
43757;BME280;73222;41.866;12.462;2024-03-17T05:45:54;101772.03;;;12.28;100.00
43757;BME280;73222;41.866;12.462;2024-03-17T05:48:20;101765.81;;;12.18;100.00
43757;BME280;73222;41.866;12.462;2024-03-17T05:50:46;101754.69;;;12.27;100.00
43757;BME280;73222;41.866;12.462;2024-03-17T05:53:12;101744.69;;;12.55;100.00
43757;BME280;73222;41.866;12.462;2024-03-17T05:55:37;101747.66;;;12.82;100.00
43757;BME280;73222;41.866;12.462;2024-03-17T05:58:03;101740.91;;;12.96;100.00
43757;BME280;73222;41.866;12.462;2024-03-17T06:00:29;101734.66;;;13.59;100.00
43757;BME280;73222;41.866;12.462;2024-03-17T06:02:56;101724.19;;;13.53;100.00
43757;BME280;73222;41.866;12.462;2024-03-17T06:05:21;101723.72;;;14.04;100.00
43757;BME280;73222;41.866;12.462;2024-03-17T06:07:46;101723.88;;;14.28;100.00
43757;BME280;73222;41.866;12.462;2024-03-17T06:10:12;101713.78;;;14.86;100.00
43757;BME280;73222;41.866;12.462;2024-03-17T06:12:38;101712.03;;;14.82;100.00
43757;BME280;73222;41.866;12.462;2024-03-17T06:15:03;101709.56;;;15.38;100.00
43757;BME280;73222;41.866;12.462;2024-03-17T06:17:29;101702.63;;;15.65;100.00
43757;BME280;73222;41.866;12.462;2024-03-17T06:19:55;101700.00;;;15.84;100.00
43757;BME280;73222;41.866;12.462;2024-03-17T06:22:22;101704.19;;;16.61;100.00
43757;BME280;73222;41.866;12.462;2024-03-17T06:24:48;101710.31;;;16.60;100.00
43757;BME280;73222;41.866;12.462;2024-03-17T06:27:14;101712.72;;;17.05;100.00
43757;BME280;73222;41.866;12.462;2024-03-17T06:29:39;101720.31;;;17.46;100.00
43757;BME280;73222;41.866;12.462;2024-03-17T06:32:05;101712.53;;;17.36;100.00
43757;BME280;73222;41.866;12.462;2024-03-17T06:34:30;101711.66;;;17.37;100.00
43757;BME280;73222;41.866;12.462;2024-03-17T06:36:56;101726.25;;;17.73;100.00
43757;BME280;73222;41.866;12.462;2024-03-17T06:39:21;101720.31;;;17.47;100.00
43757;BME280;73222;41.866;12.462;2024-03-17T06:41:47;101724.38;;;17.84;100.00
43757;BME280;73222;41.866;12.462;2024-03-17T06:44:12;101726.22;;;17.76;100.00
43757;BME280;73222;41.866;12.462;2024-03-17T06:46:37;101728.47;;;18.18;100.00
43757;BME280;73222;41.866;12.462;2024-03-17T06:49:03;101724.03;;;18.24;100.00
43757;BME280;73222;41.866;12.462;2024-03-17T06:51:28;101725.75;;;18.29;100.00
43757;BME280;73222;41.866;12.462;2024-03-17T06:53:54;101731.94;;;18.93;100.00
43757;BME280;73222;41.866;12.462;2024-03-17T06:56:21;101735.59;;;18.81;100.00
43757;BME280;73222;41.866;12.462;2024-03-17T06:58:47;101737.72;;;19.79;100.00
43757;BME280;73222;41.866;12.462;2024-03-17T07:01:12;101734.34;;;20.22;100.00
43757;BME280;73222;41.866;12.462;2024-03-17T07:03:38;101740.50;;;20.21;100.00
43757;BME280;73222;41.866;12.462;2024-03-17T07:06:04;101743.84;;;21.16;100.00
43757;BME280;73222;41.866;12.462;2024-03-17T07:08:31;101745.19;;;21.36;100.00
43757;BME280;73222;41.866;12.462;2024-03-17T07:11:06;101743.09;;;21.50;100.00
43757;BME280;73222;41.866;12.462;2024-03-17T07:13:34;101734.69;;;21.33;100.00
43757;BME280;73222;41.866;12.462;2024-03-17T07:16:04;101736.69;;;20.83;100.00
43757;BME280;73222;41.866;12.462;2024-03-17T07:18:33;101743.66;;;21.25;100.00
43757;BME280;73222;41.866;12.462;2024-03-17T07:21:01;101739.63;;;21.85;100.00
43757;BME280;73222;41.866;12.462;2024-03-17T07:23:29;101751.16;;;22.78;100.00
43757;BME280;73222;41.866;12.462;2024-03-17T07:25:56;101744.75;;;22.57;100.00
43757;BME280;73222;41.866;12.462;2024-03-17T07:28:22;101753.75;;;22.80;100.00
43757;BME280;73222;41.866;12.462;2024-03-17T07:30:49;101748.88;;;22.01;100.00
43757;BME280;73222;41.866;12.462;2024-03-17T07:33:15;101756.56;;;23.61;99.23
43757;BME280;73222;41.866;12.462;2024-03-17T07:35:52;101761.91;;;23.32;100.00
43757;BME280;73222;41.866;12.462;2024-03-17T07:38:18;101764.16;;;23.15;100.00
43757;BME280;73222;41.866;12.462;2024-03-17T07:40:45;101758.19;;;23.65;100.00
43757;BME280;73222;41.866;12.462;2024-03-17T07:43:11;101764.06;;;24.51;89.03
43757;BME280;73222;41.866;12.462;2024-03-17T07:45:37;101769.59;;;23.93;91.51
43757;BME280;73222;41.866;12.462;2024-03-17T07:48:02;101769.53;;;24.21;89.44
43757;BME280;73222;41.866;12.462;2024-03-17T07:50:28;101782.13;;;25.11;80.06
43757;BME280;73222;41.866;12.462;2024-03-17T07:52:53;101771.28;;;24.46;81.21
43757;BME280;73222;41.866;12.462;2024-03-17T07:55:19;101773.88;;;25.86;75.51
43757;BME280;73222;41.866;12.462;2024-03-17T07:57:44;101773.81;;;26.48;71.26
43757;BME280;73222;41.866;12.462;2024-03-17T08:00:10;101778.25;;;25.43;71.00
43757;BME280;73222;41.866;12.462;2024-03-17T08:02:49;101774.13;;;26.01;71.29
43757;BME280;73222;41.866;12.462;2024-03-17T08:05:15;101774.41;;;26.36;64.47
43757;BME280;73222;41.866;12.462;2024-03-17T08:07:40;101770.97;;;25.92;69.69
43757;BME280;73222;41.866;12.462;2024-03-17T08:10:07;101766.41;;;26.57;61.20
43757;BME280;73222;41.866;12.462;2024-03-17T08:12:33;101773.41;;;27.35;53.98
43757;BME280;73222;41.866;12.462;2024-03-17T08:14:58;101776.38;;;26.52;55.84
43757;BME280;73222;41.866;12.462;2024-03-17T08:17:25;101768.00;;;26.99;58.21
43757;BME280;73222;41.866;12.462;2024-03-17T08:19:50;101768.19;;;27.51;53.16
43757;BME280;73222;41.866;12.462;2024-03-17T08:22:15;101755.94;;;26.92;56.05
43757;BME280;73222;41.866;12.462;2024-03-17T08:24:41;101766.31;;;26.78;53.39
43757;BME280;73222;41.866;12.462;2024-03-17T08:27:07;101770.19;;;27.82;55.40
43757;BME280;73222;41.866;12.462;2024-03-17T08:29:32;101768.59;;;27.24;53.51
43757;BME280;73222;41.866;12.462;2024-03-17T08:32:00;101766.09;;;28.78;46.31
43757;BME280;73222;41.866;12.462;2024-03-17T08:34:26;101749.88;;;26.88;51.71
43757;BME280;73222;41.866;12.462;2024-03-17T08:36:52;101761.09;;;27.69;51.44
43757;BME280;73222;41.866;12.462;2024-03-17T08:39:17;101759.97;;;28.08;47.13
43757;BME280;73222;41.866;12.462;2024-03-17T08:41:44;101767.91;;;29.26;42.53
43757;BME280;73222;41.866;12.462;2024-03-17T08:44:10;101763.88;;;29.02;43.14
43757;BME280;73222;41.866;12.462;2024-03-17T08:46:36;101761.72;;;29.09;44.17
43757;BME280;73222;41.866;12.462;2024-03-17T08:49:01;101768.19;;;30.42;39.00
43757;BME280;73222;41.866;12.462;2024-03-17T08:51:26;101771.81;;;30.55;38.60
43757;BME280;73222;41.866;12.462;2024-03-17T08:53:53;101776.00;;;31.97;34.35
43757;BME280;73222;41.866;12.462;2024-03-17T08:56:18;101777.81;;;31.43;36.79
43757;BME280;73222;41.866;12.462;2024-03-17T08:58:46;101777.53;;;30.35;39.04
43757;BME280;73222;41.866;12.462;2024-03-17T09:01:13;101784.75;;;30.03;40.14
43757;BME280;73222;41.866;12.462;2024-03-17T09:03:39;101787.63;;;31.57;36.01
43757;BME280;73222;41.866;12.462;2024-03-17T09:06:14;101789.09;;;30.50;39.79
43757;BME280;73222;41.866;12.462;2024-03-17T09:08:40;101784.78;;;30.47;39.42
43757;BME280;73222;41.866;12.462;2024-03-17T09:11:12;101780.72;;;30.98;37.80
43757;BME280;73222;41.866;12.462;2024-03-17T09:13:38;101787.28;;;30.36;37.85
43757;BME280;73222;41.866;12.462;2024-03-17T09:16:04;101785.06;;;31.69;37.14
43757;BME280;73222;41.866;12.462;2024-03-17T09:18:30;101782.00;;;32.27;35.36
43757;BME280;73222;41.866;12.462;2024-03-17T09:23:22;101773.59;;;31.53;33.95
43757;BME280;73222;41.866;12.462;2024-03-17T09:25:58;101764.44;;;32.86;32.80
43757;BME280;73222;41.866;12.462;2024-03-17T09:28:24;101761.00;;;32.46;33.77
43757;BME280;73222;41.866;12.462;2024-03-17T09:30:49;101756.53;;;32.08;33.10
43757;BME280;73222;41.866;12.462;2024-03-17T09:33:15;101751.13;;;32.34;33.14
43757;BME280;73222;41.866;12.462;2024-03-17T09:35:40;101757.16;;;33.84;30.57
43757;BME280;73222;41.866;12.462;2024-03-17T09:38:06;101749.88;;;32.77;31.80
43757;BME280;73222;41.866;12.462;2024-03-17T09:40:32;101746.56;;;32.73;32.46
43757;BME280;73222;41.866;12.462;2024-03-17T09:42:57;101756.47;;;32.97;31.56
43757;BME280;73222;41.866;12.462;2024-03-17T09:45:31;101758.94;;;32.87;32.05
43757;BME280;73222;41.866;12.462;2024-03-17T09:47:59;101755.28;;;33.01;31.24
43757;BME280;73222;41.866;12.462;2024-03-17T09:50:25;101745.63;;;33.23;32.23
43757;BME280;73222;41.866;12.462;2024-03-17T09:52:51;101749.38;;;32.59;32.46
43757;BME280;73222;41.866;12.462;2024-03-17T09:55:17;101738.00;;;32.68;33.17
43757;BME280;73222;41.866;12.462;2024-03-17T09:57:43;101742.63;;;33.03;31.84
43757;BME280;73222;41.866;12.462;2024-03-17T10:00:11;101738.97;;;33.88;30.53
43757;BME280;73222;41.866;12.462;2024-03-17T10:02:42;101740.22;;;33.12;31.74
43757;BME280;73222;41.866;12.462;2024-03-17T10:05:18;101740.69;;;33.77;30.47
43757;BME280;73222;41.866;12.462;2024-03-17T10:07:44;101724.78;;;33.63;29.70
43757;BME280;73222;41.866;12.462;2024-03-17T10:10:13;101722.72;;;32.57;31.13
43757;BME280;73222;41.866;12.462;2024-03-17T10:12:38;101721.91;;;33.06;30.83
43757;BME280;73222;41.866;12.462;2024-03-17T10:15:04;101718.50;;;33.98;30.29
43757;BME280;73222;41.866;12.462;2024-03-17T10:17:33;101724.31;;;33.80;29.71
43757;BME280;73222;41.866;12.462;2024-03-17T10:20:13;101716.13;;;33.59;29.07
43757;BME280;73222;41.866;12.462;2024-03-17T10:23:01;101722.91;;;34.22;28.46
43757;BME280;73222;41.866;12.462;2024-03-17T10:25:30;101716.50;;;33.89;28.70
43757;BME280;73222;41.866;12.462;2024-03-17T10:27:57;101722.53;;;34.93;28.15
43757;BME280;73222;41.866;12.462;2024-03-17T10:30:23;101714.34;;;34.62;27.48
43757;BME280;73222;41.866;12.462;2024-03-17T10:32:59;101710.94;;;34.03;27.84
43757;BME280;73222;41.866;12.462;2024-03-17T10:35:29;101711.41;;;34.54;27.40
43757;BME280;73222;41.866;12.462;2024-03-17T10:37:57;101707.97;;;32.76;30.70
43757;BME280;73222;41.866;12.462;2024-03-17T10:40:24;101710.03;;;33.33;30.29
43757;BME280;73222;41.866;12.462;2024-03-17T10:42:51;101710.63;;;32.76;30.81
43757;BME280;73222;41.866;12.462;2024-03-17T10:45:17;101706.00;;;32.78;30.70
43757;BME280;73222;41.866;12.462;2024-03-17T10:47:48;101707.16;;;34.06;29.97
43757;BME280;73222;41.866;12.462;2024-03-17T10:50:22;101704.75;;;33.55;28.62
43757;BME280;73222;41.866;12.462;2024-03-17T10:52:52;101706.28;;;34.05;28.00
43757;BME280;73222;41.866;12.462;2024-03-17T10:55:24;101706.97;;;33.50;29.74
43757;BME280;73222;41.866;12.462;2024-03-17T10:57:52;101706.41;;;33.34;29.78
43757;BME280;73222;41.866;12.462;2024-03-17T11:00:20;101705.38;;;32.74;31.41
43757;BME280;73222;41.866;12.462;2024-03-17T11:02:48;101705.16;;;33.62;30.08
43757;BME280;73222;41.866;12.462;2024-03-17T11:05:28;101701.59;;;33.62;30.46
43757;BME280;73222;41.866;12.462;2024-03-17T11:07:59;101702.84;;;33.57;29.80
43757;BME280;73222;41.866;12.462;2024-03-17T11:10:30;101703.81;;;32.96;30.05
43757;BME280;73222;41.866;12.462;2024-03-17T11:12:57;101705.34;;;33.12;30.40
43757;BME280;73222;41.866;12.462;2024-03-17T11:17:54;101701.59;;;33.73;29.38
43757;BME280;73222;41.866;12.462;2024-03-17T11:20:28;101699.81;;;34.08;29.24
43757;BME280;73222;41.866;12.462;2024-03-17T11:22:55;101692.97;;;33.81;29.25
43757;BME280;73222;41.866;12.462;2024-03-17T11:27:52;101685.03;;;33.79;29.47
43757;BME280;73222;41.866;12.462;2024-03-17T11:41:37;101680.13;;;33.96;29.40
43757;BME280;73222;41.866;12.462;2024-03-17T11:46:58;101668.31;;;33.28;29.95
43757;BME280;73222;41.866;12.462;2024-03-17T11:51:51;101665.09;;;31.88;32.11
43757;BME280;73222;41.866;12.462;2024-03-17T11:54:22;101659.69;;;32.14;29.56
43757;BME280;73222;41.866;12.462;2024-03-17T11:56:50;101664.06;;;32.15;30.33
43757;BME280;73222;41.866;12.462;2024-03-17T11:59:16;101657.00;;;32.14;29.51
43757;BME280;73222;41.866;12.462;2024-03-17T12:01:48;101655.41;;;31.47;31.00
43757;BME280;73222;41.866;12.462;2024-03-17T12:04:15;101654.97;;;31.66;31.71
43757;BME280;73222;41.866;12.462;2024-03-17T12:06:59;101651.88;;;32.48;31.41
43757;BME280;73222;41.866;12.462;2024-03-17T12:09:29;101650.84;;;32.87;30.38
43757;BME280;73222;41.866;12.462;2024-03-17T12:12:08;101643.69;;;32.63;29.98
43757;BME280;73222;41.866;12.462;2024-03-17T12:14:35;101643.53;;;33.83;28.87
43757;BME280;73222;41.866;12.462;2024-03-17T12:17:09;101641.59;;;32.91;29.59
43757;BME280;73222;41.866;12.462;2024-03-17T12:19:35;101636.66;;;33.45;30.75
43757;BME280;73222;41.866;12.462;2024-03-17T12:22:02;101627.00;;;32.71;30.51
43757;BME280;73222;41.866;12.462;2024-03-17T12:24:38;101628.03;;;33.17;30.74
43757;BME280;73222;41.866;12.462;2024-03-17T12:27:06;101621.53;;;33.44;28.88
43757;BME280;73222;41.866;12.462;2024-03-17T12:29:35;101624.38;;;31.44;31.51
43757;BME280;73222;41.866;12.462;2024-03-17T12:32:05;101619.66;;;32.00;31.42
43757;BME280;73222;41.866;12.462;2024-03-17T12:34:32;101621.25;;;32.40;31.93
43757;BME280;73222;41.866;12.462;2024-03-17T12:36:58;101622.13;;;31.90;38.22
43757;BME280;73222;41.866;12.462;2024-03-17T12:39:28;101614.41;;;31.59;42.15
43757;BME280;73222;41.866;12.462;2024-03-17T12:42:05;101604.56;;;29.53;53.20
43757;BME280;73222;41.866;12.462;2024-03-17T12:44:32;101613.13;;;30.01;52.26
43757;BME280;73222;41.866;12.462;2024-03-17T12:47:02;101607.97;;;29.40;54.32
43757;BME280;73222;41.866;12.462;2024-03-17T12:49:32;101615.59;;;28.69;59.37
43757;BME280;73222;41.866;12.462;2024-03-17T12:52:00;101617.50;;;28.19;64.90
43757;BME280;73222;41.866;12.462;2024-03-17T12:54:27;101609.47;;;28.03;68.86
43757;BME280;73222;41.866;12.462;2024-03-17T12:57:20;101600.25;;;25.93;84.69
43757;BME280;73222;41.866;12.462;2024-03-17T13:00:17;101603.88;;;25.30;91.50
43757;BME280;73222;41.866;12.462;2024-03-17T13:02:58;101605.09;;;26.24;90.01